Time;durP1;ratioP1;P1;durP2;ratioP2;P2;SDS_P1;SDS_P2;PMS_P1;PMS_P2;Temp;Humidity;BMP_temperature;BMP_pressure;BME280_temperature;BME280_humidity;BME280_pressure;Samples;Min_cycle;Max_cycle;Signal;HPM_P1;HPM_P2
2023/06/18 00:02:16;;;;;;;12.10;6.30;;;;;;;13.80;100.00;100890.34;5073232;28;20487;-73
2023/06/18 00:04:42;;;;;;;11.27;6.50;;;;;;;13.69;100.00;100889.03;5073220;28;20548;-72
2023/06/18 00:07:09;;;;;;;11.00;6.33;;;;;;;13.61;100.00;100885.97;5073066;28;20932;-72
2023/06/18 00:09:35;;;;;;;15.40;6.13;;;;;;;13.68;100.00;100884.69;5074297;28;20535;-73
2023/06/18 00:12:02;;;;;;;15.40;6.50;;;;;;;13.72;100.00;100885.66;5072851;28;20480;-72
2023/06/18 00:14:29;;;;;;;13.80;6.83;;;;;;;13.75;100.00;100891.31;5073175;28;20440;-72
2023/06/18 00:16:57;;;;;;;13.47;7.43;;;;;;;13.70;100.00;100883.28;5073096;28;20445;-74
2023/06/18 00:19:23;;;;;;;12.00;7.00;;;;;;;13.65;100.00;100877.19;5073033;28;20459;-72
2023/06/18 00:21:50;;;;;;;11.23;6.43;;;;;;;13.55;100.00;100875.53;5072762;28;20477;-72
2023/06/18 00:24:16;;;;;;;12.77;6.53;;;;;;;13.67;100.00;100870.28;5072778;28;20981;-72
2023/06/18 00:26:43;;;;;;;11.20;6.10;;;;;;;13.68;100.00;100871.09;5073253;28;20537;-72
2023/06/18 00:29:10;;;;;;;12.03;6.97;;;;;;;13.52;100.00;100870.72;5072821;28;20513;-74
2023/06/18 00:31:37;;;;;;;11.83;6.70;;;;;;;13.40;100.00;100867.78;5072964;28;20488;-73
2023/06/18 00:34:06;;;;;;;14.93;6.20;;;;;;;13.46;100.00;100866.50;5072942;28;20518;-72
2023/06/18 00:36:33;;;;;;;12.63;6.90;;;;;;;13.45;100.00;100868.44;5072987;28;20441;-73
2023/06/18 00:39:02;;;;;;;10.07;5.97;;;;;;;13.43;100.00;100865.22;5073085;28;20463;-73
2023/06/18 00:41:30;;;;;;;13.10;6.53;;;;;;;13.38;100.00;100873.53;5072688;28;20884;-72
2023/06/18 00:43:57;;;;;;;13.53;6.23;;;;;;;13.34;100.00;100873.34;5072558;28;20441;-72
2023/06/18 00:46:24;;;;;;;15.30;6.70;;;;;;;13.34;100.00;100881.50;5073125;28;20474;-72
2023/06/18 00:48:51;;;;;;;11.83;6.53;;;;;;;13.26;100.00;100876.03;5072356;28;20492;-72
2023/06/18 00:51:21;;;;;;;13.00;6.43;;;;;;;13.22;100.00;100875.84;5073018;28;20494;-73
2023/06/18 00:53:47;;;;;;;11.40;6.70;;;;;;;13.17;100.00;100870.50;5073893;28;20488;-72
2023/06/18 00:56:14;;;;;;;12.63;6.30;;;;;;;13.21;100.00;100870.69;5076694;28;20472;-73
2023/06/18 00:58:41;;;;;;;12.20;5.93;;;;;;;13.09;100.00;100871.25;5076526;28;20543;-73
2023/06/18 01:01:10;;;;;;;11.17;6.07;;;;;;;13.07;100.00;100870.78;5076644;28;20472;-72
2023/06/18 01:03:36;;;;;;;16.10;6.83;;;;;;;13.14;100.00;100871.91;5076514;28;20935;-72
2023/06/18 01:06:04;;;;;;;12.00;6.50;;;;;;;13.17;100.00;100872.44;5076356;28;20445;-73
2023/06/18 01:08:33;;;;;;;12.57;6.77;;;;;;;13.09;100.00;100873.97;5075864;28;20479;-73
2023/06/18 01:11:03;;;;;;;12.13;5.67;;;;;;;13.02;100.00;100876.34;5076018;28;21001;-73
2023/06/18 01:13:32;;;;;;;11.67;6.37;;;;;;;13.00;100.00;100873.91;5076338;28;20448;-73
2023/06/18 01:16:03;;;;;;;13.57;7.77;;;;;;;12.96;100.00;100866.69;5076234;28;20453;-72
2023/06/18 01:18:35;;;;;;;12.47;6.40;;;;;;;12.88;100.00;100874.50;5076279;28;20457;-72
2023/06/18 01:21:06;;;;;;;10.53;5.03;;;;;;;12.78;100.00;100877.44;5075912;28;20908;-73
2023/06/18 01:23:49;;;;;;;12.93;7.37;;;;;;;12.84;100.00;100884.38;5076371;28;20453;-72
2023/06/18 01:26:20;;;;;;;13.57;7.43;;;;;;;12.84;100.00;100881.66;5076223;28;20795;-72
2023/06/18 01:28:48;;;;;;;10.93;6.33;;;;;;;12.93;100.00;100879.00;5076026;28;20489;-75
2023/06/18 01:31:16;;;;;;;10.67;5.60;;;;;;;12.85;100.00;100877.81;5076051;28;20490;-71
2023/06/18 01:33:42;;;;;;;13.93;7.00;;;;;;;12.92;100.00;100873.84;5075963;28;20479;-72
2023/06/18 01:36:12;;;;;;;13.23;6.70;;;;;;;12.92;100.00;100879.28;5075931;28;20448;-72
2023/06/18 01:38:48;;;;;;;11.77;6.33;;;;;;;12.94;100.00;100877.09;5076032;28;20464;-72
2023/06/18 01:41:26;;;;;;;11.80;6.00;;;;;;;12.92;100.00;100882.00;5075760;28;20429;-72
2023/06/18 01:43:57;;;;;;;16.00;6.50;;;;;;;12.83;100.00;100890.91;5075532;28;20931;-72
2023/06/18 01:46:27;;;;;;;27.67;7.50;;;;;;;12.87;100.00;100889.19;5075704;28;20425;-72
2023/06/18 01:49:06;;;;;;;11.33;7.17;;;;;;;12.74;100.00;100898.19;5075349;28;20484;-72
2023/06/18 01:51:35;;;;;;;15.73;6.90;;;;;;;12.85;100.00;100890.63;5075390;28;20973;-72
2023/06/18 01:54:05;;;;;;;12.70;6.50;;;;;;;12.81;100.00;100895.06;5075637;28;20446;-72
2023/06/18 01:56:32;;;;;;;13.27;6.23;;;;;;;12.66;100.00;100896.22;5075267;28;20462;-72
2023/06/18 01:58:59;;;;;;;15.60;7.60;;;;;;;12.63;100.00;100894.13;5075418;28;20461;-72
2023/06/18 02:01:26;;;;;;;18.20;6.97;;;;;;;12.68;100.00;100902.16;5075193;28;20936;-71
2023/06/18 02:03:53;;;;;;;13.10;8.07;;;;;;;12.67;100.00;100905.19;5075423;28;20454;-71
2023/06/18 02:06:19;;;;;;;12.83;6.37;;;;;;;12.59;100.00;100901.28;5075261;28;20441;-72
2023/06/18 02:08:46;;;;;;;10.77;6.13;;;;;;;12.57;100.00;100893.44;5075078;28;20509;-72
2023/06/18 02:11:14;;;;;;;13.73;7.50;;;;;;;12.50;100.00;100895.75;5075339;28;20448;-71
2023/06/18 02:13:41;;;;;;;14.27;6.57;;;;;;;12.58;100.00;100899.66;5075276;28;20461;-71
2023/06/18 02:16:07;;;;;;;12.23;6.60;;;;;;;12.54;100.00;100901.41;5074962;28;20524;-71
2023/06/18 02:18:35;;;;;;;12.97;6.93;;;;;;;12.48;100.00;100903.41;5075131;28;20472;-72
2023/06/18 02:21:01;;;;;;;12.43;7.37;;;;;;;12.57;100.00;100904.31;5074811;28;20444;-72
2023/06/18 02:23:28;;;;;;;12.73;7.33;;;;;;;12.58;100.00;100911.34;5074762;28;20438;-72
2023/06/18 02:25:56;;;;;;;12.60;6.93;;;;;;;12.49;100.00;100902.31;5075033;28;20537;-72
2023/06/18 02:28:25;;;;;;;17.90;8.60;;;;;;;12.57;100.00;100904.31;5074863;28;20461;-71
2023/06/18 02:30:51;;;;;;;13.00;7.73;;;;;;;12.69;100.00;100900.22;5074602;28;20481;-72
2023/06/18 02:33:18;;;;;;;12.03;7.00;;;;;;;12.72;100.00;100907.78;5074702;28;20823;-71
2023/06/18 02:35:45;;;;;;;12.87;6.70;;;;;;;12.68;100.00;100896.72;5074497;28;20794;-72
2023/06/18 02:38:12;;;;;;;17.63;7.97;;;;;;;12.58;100.00;100902.38;5074630;28;20552;-71
2023/06/18 02:40:38;;;;;;;13.77;7.43;;;;;;;12.55;100.00;100903.00;5074450;28;20850;-71
2023/06/18 02:43:05;;;;;;;13.30;6.97;;;;;;;12.39;100.00;100899.78;5074457;28;20436;-71
2023/06/18 02:45:34;;;;;;;13.20;6.40;;;;;;;12.31;100.00;100893.19;5074318;28;20839;-71
2023/06/18 02:48:00;;;;;;;13.47;7.40;;;;;;;12.29;100.00;100900.84;5074207;28;20552;-71
2023/06/18 02:50:27;;;;;;;13.00;6.43;;;;;;;12.26;100.00;100906.88;5074485;28;20549;-71
2023/06/18 02:52:54;;;;;;;15.13;7.57;;;;;;;12.36;100.00;100909.38;5074536;28;20448;-71
2023/06/18 02:55:22;;;;;;;13.73;7.10;;;;;;;12.40;100.00;100909.56;5074449;28;20449;-71
2023/06/18 02:57:48;;;;;;;11.70;6.40;;;;;;;12.41;100.00;100907.66;5074549;28;20469;-71
2023/06/18 03:00:16;;;;;;;15.03;7.43;;;;;;;12.48;100.00;100908.84;5074003;28;21019;-72
2023/06/18 03:02:44;;;;;;;13.23;7.70;;;;;;;12.55;100.00;100905.72;5074275;28;20438;-71
2023/06/18 03:05:11;;;;;;;15.17;8.00;;;;;;;12.55;100.00;100911.94;5074170;28;20473;-71
2023/06/18 03:07:38;;;;;;;16.03;7.47;;;;;;;12.57;100.00;100906.19;5073794;28;20481;-71
2023/06/18 03:10:05;;;;;;;14.90;7.80;;;;;;;12.58;100.00;100913.25;5074065;28;20465;-71
2023/06/18 03:12:32;;;;;;;15.60;8.23;;;;;;;12.59;100.00;100910.22;5074095;28;20459;-71
2023/06/18 03:14:58;;;;;;;14.17;7.07;;;;;;;12.49;100.00;100910.47;5074050;28;20528;-71
2023/06/18 03:17:25;;;;;;;16.97;7.17;;;;;;;12.61;100.00;100902.56;5073393;28;20540;-71
2023/06/18 03:19:53;;;;;;;17.30;9.07;;;;;;;12.52;100.00;100909.03;5073973;28;20437;-71
2023/06/18 03:22:20;;;;;;;14.00;7.50;;;;;;;12.32;100.00;100905.66;5073611;28;20975;-71
2023/06/18 03:24:49;;;;;;;16.90;8.70;;;;;;;12.37;100.00;100910.19;5073784;28;20532;-71
2023/06/18 03:27:16;;;;;;;12.40;7.70;;;;;;;12.47;100.00;100917.31;5073689;28;20455;-71
2023/06/18 03:29:43;;;;;;;18.63;9.90;;;;;;;12.42;100.00;100914.69;5073715;28;20481;-71
2023/06/18 03:32:10;;;;;;;16.20;8.87;;;;;;;12.36;100.00;100912.09;5073359;28;20932;-71
2023/06/18 03:34:38;;;;;;;15.90;8.90;;;;;;;12.36;100.00;100912.09;5073361;28;20528;-71
2023/06/18 03:37:07;;;;;;;19.70;8.10;;;;;;;12.35;100.00;100910.50;5073638;28;20522;-71
2023/06/18 03:39:34;;;;;;;14.20;7.90;;;;;;;12.37;100.00;100913.69;5073499;28;20457;-72
2023/06/18 03:42:01;;;;;;;19.13;10.50;;;;;;;12.45;100.00;100912.19;5073226;28;21043;-71
2023/06/18 03:44:27;;;;;;;14.30;8.10;;;;;;;12.57;100.00;100914.34;5073503;28;20442;-71
2023/06/18 03:46:54;;;;;;;15.90;9.03;;;;;;;12.56;100.00;100913.53;5073471;28;20445;-71
2023/06/18 03:49:20;;;;;;;15.83;7.63;;;;;;;12.66;100.00;100909.00;5073523;28;20557;-71
2023/06/18 03:51:47;;;;;;;14.97;8.33;;;;;;;12.69;100.00;100909.19;5073413;28;20484;-71
2023/06/18 03:54:15;;;;;;;16.20;9.03;;;;;;;12.79;100.00;100913.56;5073344;28;20448;-71
2023/06/18 03:56:42;;;;;;;21.03;9.57;;;;;;;12.73;100.00;100912.91;5073049;28;20449;-71
2023/06/18 03:59:08;;;;;;;14.10;7.67;;;;;;;12.78;100.00;100912.78;5072949;28;20457;-71
2023/06/18 04:01:35;;;;;;;15.30;8.90;;;;;;;12.86;100.00;100914.75;5073316;28;20464;-71
2023/06/18 04:04:03;;;;;;;17.67;8.73;;;;;;;12.79;100.00;100914.41;5073233;28;20955;-71
2023/06/18 04:06:30;;;;;;;14.20;7.63;;;;;;;12.91;100.00;100913.03;5073189;28;20540;-71
2023/06/18 04:08:56;;;;;;;12.60;7.00;;;;;;;12.96;100.00;100918.34;5072910;28;20569;-71
2023/06/18 04:11:24;;;;;;;18.70;7.47;;;;;;;13.02;100.00;100919.84;5073060;28;20487;-71
2023/06/18 04:13:51;;;;;;;16.70;9.13;;;;;;;13.10;100.00;100913.66;5073085;28;20442;-72
2023/06/18 04:16:18;;;;;;;14.70;8.10;;;;;;;13.16;100.00;100908.91;5073089;28;20465;-72
2023/06/18 04:18:44;;;;;;;12.40;7.70;;;;;;;13.24;100.00;100914.44;5072761;28;20465;-72
2023/06/18 04:21:11;;;;;;;13.30;7.87;;;;;;;13.29;100.00;100917.03;5072639;28;20463;-72
2023/06/18 04:23:37;;;;;;;21.40;8.57;;;;;;;13.41;100.00;100918.34;5072725;28;20437;-72
2023/06/18 04:26:04;;;;;;;15.30;7.40;;;;;;;13.51;100.00;100920.81;5073086;28;20516;-72
2023/06/18 04:28:32;;;;;;;15.37;8.23;;;;;;;13.57;100.00;100919.56;5073892;28;20468;-72
2023/06/18 04:30:59;;;;;;;13.90;7.13;;;;;;;13.71;100.00;100919.47;5077083;28;20488;-72
2023/06/18 04:33:25;;;;;;;16.17;8.93;;;;;;;13.80;100.00;100921.09;5077141;28;20540;-72
2023/06/18 04:35:52;;;;;;;15.27;7.93;;;;;;;13.93;100.00;100921.31;5077078;28;20889;-71
2023/06/18 04:38:21;;;;;;;13.10;8.43;;;;;;;14.03;100.00;100921.03;5076979;28;20488;-72
2023/06/18 04:40:48;;;;;;;12.40;7.73;;;;;;;14.14;100.00;100922.34;5076931;28;20955;-72
2023/06/18 04:43:17;;;;;;;13.93;7.70;;;;;;;14.24;100.00;100918.53;5076935;28;20441;-72
2023/06/18 04:45:46;;;;;;;14.37;7.50;;;;;;;14.31;100.00;100925.13;5076915;28;20471;-72
2023/06/18 04:48:14;;;;;;;14.93;8.10;;;;;;;14.41;100.00;100923.22;5076786;28;20545;-72
2023/06/18 04:50:40;;;;;;;16.37;7.80;;;;;;;14.48;100.00;100918.09;5077031;28;20485;-72
2023/06/18 04:53:07;;;;;;;14.10;7.83;;;;;;;14.55;100.00;100919.25;5076865;28;20481;-73
2023/06/18 04:55:33;;;;;;;15.13;8.23;;;;;;;14.66;100.00;100919.75;5076704;28;20441;-71
2023/06/18 04:58:00;;;;;;;16.13;8.50;;;;;;;14.76;100.00;100915.88;5076259;28;20995;-72
2023/06/18 05:00:27;;;;;;;14.30;7.93;;;;;;;14.84;100.00;100920.56;5076616;28;20473;-71
2023/06/18 05:02:57;;;;;;;13.57;6.90;;;;;;;14.92;100.00;100917.03;5076622;28;20445;-71
2023/06/18 05:05:23;;;;;;;12.90;7.20;;;;;;;14.99;100.00;100925.50;5076527;28;20449;-71
2023/06/18 05:07:50;;;;;;;15.07;7.70;;;;;;;15.09;100.00;100929.81;5076061;28;20505;-71
2023/06/18 05:10:17;;;;;;;13.63;7.00;;;;;;;15.19;100.00;100924.03;5076325;28;20481;-71
2023/06/18 05:12:44;;;;;;;14.97;8.57;;;;;;;15.31;100.00;100921.44;5076048;28;20468;-71
2023/06/18 05:15:10;;;;;;;16.80;8.20;;;;;;;15.46;100.00;100924.78;5076328;28;20445;-71
2023/06/18 05:17:37;;;;;;;14.60;8.83;;;;;;;15.59;100.00;100921.06;5076215;28;20465;-71
2023/06/18 05:20:08;;;;;;;12.60;7.60;;;;;;;15.73;100.00;100929.88;5075850;28;20453;-71
2023/06/18 05:22:35;;;;;;;12.43;7.20;;;;;;;15.87;100.00;100924.97;5075965;28;20516;-71
2023/06/18 05:25:04;;;;;;;15.20;8.67;;;;;;;16.01;100.00;100929.41;5076629;28;20452;-75
2023/06/18 05:27:31;;;;;;;17.43;8.73;;;;;;;16.13;100.00;100927.59;5076063;28;20433;-72
2023/06/18 05:29:59;;;;;;;15.93;8.20;;;;;;;16.27;100.00;100927.34;5075781;28;21114;-70
2023/06/18 05:32:25;;;;;;;14.30;8.30;;;;;;;16.39;100.00;100930.16;5075917;28;20503;-70
2023/06/18 05:34:55;;;;;;;18.53;10.10;;;;;;;16.51;100.00;100937.66;5075646;28;20891;-70
2023/06/18 05:37:23;;;;;;;14.90;7.60;;;;;;;16.67;100.00;100924.19;5075866;28;20438;-70
2023/06/18 05:39:51;;;;;;;16.43;8.50;;;;;;;16.85;100.00;100930.34;5075362;28;20449;-71
2023/06/18 05:42:18;;;;;;;13.43;8.33;;;;;;;16.95;100.00;100935.41;5075761;28;20859;-71
2023/06/18 05:44:45;;;;;;;16.17;8.40;;;;;;;17.03;100.00;100925.50;5075801;28;20465;-71
2023/06/18 05:47:11;;;;;;;20.37;11.30;;;;;;;17.14;100.00;100932.19;5075710;28;20449;-72
2023/06/18 05:49:38;;;;;;;16.40;10.30;;;;;;;17.28;100.00;100924.47;5075684;28;20488;-72
2023/06/18 05:52:05;;;;;;;17.00;8.13;;;;;;;17.39;100.00;100939.31;5075647;28;20481;-71
2023/06/18 05:54:33;;;;;;;16.30;8.13;;;;;;;17.48;100.00;100941.16;5075557;28;20556;-72
2023/06/18 05:57:01;;;;;;;16.40;7.20;;;;;;;17.56;100.00;100949.28;5075446;28;20449;-72
2023/06/18 05:59:27;;;;;;;15.40;7.57;;;;;;;17.63;100.00;100954.22;5075165;28;20847;-72
2023/06/18 06:01:54;;;;;;;13.00;7.27;;;;;;;17.71;100.00;100956.06;5075171;28;20928;-72
2023/06/18 06:04:21;;;;;;;13.47;7.67;;;;;;;17.80;100.00;100959.53;5075406;28;20445;-71
2023/06/18 06:06:48;;;;;;;14.37;8.50;;;;;;;17.83;100.00;100960.78;5075417;28;20452;-71
2023/06/18 06:09:15;;;;;;;15.10;7.20;;;;;;;17.98;100.00;100962.06;5074875;28;20517;-71
2023/06/18 06:11:43;;;;;;;17.87;8.37;;;;;;;17.98;100.00;100962.06;5074873;28;21007;-71
2023/06/18 06:14:10;;;;;;;13.53;7.20;;;;;;;18.07;100.00;100969.03;5075290;28;20525;-70
2023/06/18 06:16:36;;;;;;;11.20;6.10;;;;;;;18.23;100.00;100971.88;5075199;28;20548;-70
2023/06/18 06:19:03;;;;;;;11.10;6.10;;;;;;;18.35;100.00;100980.13;5075126;28;20540;-70
2023/06/18 06:21:30;;;;;;;11.90;5.50;;;;;;;18.43;100.00;100975.66;5074803;28;20441;-71
2023/06/18 06:23:58;;;;;;;10.00;5.30;;;;;;;18.49;100.00;100970.72;5075125;28;20467;-70
2023/06/18 06:26:24;;;;;;;11.20;5.83;;;;;;;18.54;100.00;100981.47;5074970;28;20472;-70
2023/06/18 06:28:52;;;;;;;11.93;5.20;;;;;;;18.60;100.00;100986.38;5074902;28;20497;-70
2023/06/18 06:31:19;;;;;;;10.87;5.53;;;;;;;18.64;98.24;100995.53;5074802;28;20579;-69
2023/06/18 06:33:46;;;;;;;12.10;5.80;;;;;;;18.76;93.73;100994.72;5074778;28;20812;-69
2023/06/18 06:36:13;;;;;;;11.23;4.97;;;;;;;18.98;92.02;101000.84;5074798;28;20445;-69
2023/06/18 06:38:39;;;;;;;12.60;5.57;;;;;;;19.02;91.05;100988.03;5074686;28;20518;-69
2023/06/18 06:41:06;;;;;;;9.93;4.53;;;;;;;19.13;91.88;100992.69;5074701;28;20434;-69
2023/06/18 06:43:32;;;;;;;10.40;5.40;;;;;;;19.18;90.26;100979.84;5074615;28;20433;-69
2023/06/18 06:46:00;;;;;;;10.20;4.70;;;;;;;19.28;90.56;100995.81;5074619;28;20491;-69
2023/06/18 06:48:27;;;;;;;9.07;4.10;;;;;;;19.35;91.07;100982.31;5074422;28;20834;-70
2023/06/18 06:50:54;;;;;;;12.30;5.60;;;;;;;19.46;90.71;100985.31;5075051;28;20588;-70
2023/06/18 06:53:20;;;;;;;11.63;4.97;;;;;;;19.52;89.88;100986.66;5074478;28;20442;-69
2023/06/18 06:55:47;;;;;;;9.60;4.67;;;;;;;19.57;86.52;100986.44;5074409;28;20529;-69
2023/06/18 06:58:13;;;;;;;13.63;5.17;;;;;;;19.57;88.72;100983.69;5074355;28;20468;-70
2023/06/18 07:00:40;;;;;;;8.60;4.30;;;;;;;19.64;88.11;100987.41;5074027;28;20437;-70
2023/06/18 07:03:09;;;;;;;7.83;3.23;;;;;;;19.75;89.00;100984.16;5074514;28;20441;-69
2023/06/18 07:05:35;;;;;;;10.40;5.43;;;;;;;19.78;87.63;100975.19;5073874;28;20944;-70
2023/06/18 07:08:05;;;;;;;10.97;5.50;;;;;;;19.89;86.08;100984.53;5073758;28;20583;-70
2023/06/18 07:10:32;;;;;;;10.37;5.00;;;;;;;20.01;85.96;100986.38;5074013;28;20489;-70
2023/06/18 07:12:58;;;;;;;8.47;3.70;;;;;;;20.09;86.97;100988.94;5074030;28;20444;-69
2023/06/18 07:15:25;;;;;;;11.63;4.93;;;;;;;20.12;86.27;100988.25;5073872;28;20475;-69
2023/06/18 07:17:52;;;;;;;10.30;4.93;;;;;;;20.15;83.15;100982.03;5073854;28;20826;-70
2023/06/18 07:20:20;;;;;;;8.77;4.40;;;;;;;20.19;83.34;100982.13;5073628;28;20959;-70
2023/06/18 07:22:46;;;;;;;9.83;4.33;;;;;;;20.27;82.60;100983.88;5073935;28;20481;-69
2023/06/18 07:25:13;;;;;;;10.93;4.63;;;;;;;20.32;83.47;100978.13;5073869;28;20437;-70
2023/06/18 07:27:40;;;;;;;10.40;4.20;;;;;;;20.37;84.57;100972.34;5073737;28;20461;-70
2023/06/18 07:30:07;;;;;;;10.90;5.67;;;;;;;20.43;81.29;100975.59;5073404;28;20900;-70
2023/06/18 07:32:34;;;;;;;10.40;5.23;;;;;;;20.51;82.13;100974.66;5073614;28;20481;-71
2023/06/18 07:35:00;;;;;;;9.33;4.00;;;;;;;20.56;82.77;100985.38;5073715;28;20437;-69
2023/06/18 07:37:28;;;;;;;7.77;3.90;;;;;;;20.60;83.15;100975.25;5073522;28;20444;-70
2023/06/18 07:39:55;;;;;;;7.97;3.90;;;;;;;20.59;85.05;100981.13;5073204;28;20447;-71
2023/06/18 07:42:22;;;;;;;9.73;4.57;;;;;;;20.72;82.15;100987.25;5073265;28;20805;-71
2023/06/18 07:44:48;;;;;;;9.47;4.37;;;;;;;20.75;80.45;100987.34;5073470;28;20437;-72
2023/06/18 07:47:15;;;;;;;9.23;3.90;;;;;;;20.81;79.81;100985.94;5072953;28;20456;-70
2023/06/18 07:49:43;;;;;;;8.47;3.77;;;;;;;20.85;80.81;100981.28;5073467;28;20940;-73
2023/06/18 07:52:09;;;;;;;8.97;3.77;;;;;;;20.90;79.35;100985.72;5073314;28;20485;-71
2023/06/18 07:54:37;;;;;;;10.17;3.93;;;;;;;20.99;78.04;100988.25;5073366;28;20441;-71
2023/06/18 07:57:04;;;;;;;6.27;2.67;;;;;;;21.05;78.29;100990.34;5073402;28;20530;-70
2023/06/18 07:59:31;;;;;;;7.43;3.50;;;;;;;21.16;77.45;100990.56;5072954;28;20489;-71
2023/06/18 08:01:58;;;;;;;8.70;4.10;;;;;;;21.30;77.15;100985.34;5073163;28;20528;-69
2023/06/18 08:04:24;;;;;;;8.00;4.30;;;;;;;21.33;77.03;100992.91;5073249;28;20464;-69
2023/06/18 08:06:51;;;;;;;9.00;4.10;;;;;;;21.34;76.77;101000.03;5072916;28;20446;-68
2023/06/18 08:09:18;;;;;;;8.43;3.97;;;;;;;21.41;75.73;100991.88;5072982;28;20473;-71
2023/06/18 08:11:46;;;;;;;7.40;3.80;;;;;;;21.44;75.48;100989.56;5073099;28;20480;-71
2023/06/18 08:14:12;;;;;;;9.33;4.00;;;;;;;21.49;73.70;100992.03;5073127;28;20495;-72
2023/06/18 08:16:39;;;;;;;7.57;2.90;;;;;;;21.48;74.05;100982.97;5073119;28;20879;-71
2023/06/18 08:19:06;;;;;;;9.30;3.63;;;;;;;21.50;73.01;100982.59;5072953;28;20465;-72
2023/06/18 08:21:32;;;;;;;9.10;3.73;;;;;;;21.66;71.81;100984.09;5072688;28;20982;-72
2023/06/18 08:23:59;;;;;;;6.87;3.27;;;;;;;21.75;69.76;100992.13;5072871;28;20429;-72
2023/06/18 08:26:25;;;;;;;8.00;3.60;;;;;;;21.81;69.76;100985.13;5072713;28;20447;-73
2023/06/18 08:28:53;;;;;;;6.67;2.93;;;;;;;21.92;69.20;100983.34;5072726;28;20995;-72
2023/06/18 08:31:21;;;;;;;7.90;3.30;;;;;;;22.08;69.55;100980.44;5072946;28;20491;-72
2023/06/18 08:33:48;;;;;;;7.83;3.10;;;;;;;22.10;67.00;100980.09;5073000;28;20456;-72
2023/06/18 08:36:15;;;;;;;10.63;4.13;;;;;;;22.08;66.65;100979.66;5072682;28;20484;-72
2023/06/18 08:38:41;;;;;;;11.93;3.47;;;;;;;22.08;67.72;100987.94;5072536;28;20548;-72
2023/06/18 08:41:09;;;;;;;9.53;3.20;;;;;;;22.15;70.05;100980.59;5072882;28;20476;-71
2023/06/18 08:43:37;;;;;;;6.77;2.70;;;;;;;22.21;69.88;100986.59;5072855;28;20552;-72
2023/06/18 08:46:10;;;;;;;8.13;3.57;;;;;;;22.38;68.69;100977.78;5072555;28;20448;-71
2023/06/18 08:48:43;;;;;;;9.37;3.27;;;;;;;22.47;66.35;100974.75;5072803;28;20572;-72
2023/06/18 08:51:11;;;;;;;8.27;3.27;;;;;;;22.45;66.37;100981.84;5072768;28;20478;-71
2023/06/18 08:53:42;;;;;;;7.40;3.13;;;;;;;22.34;69.16;100982.47;5072702;28;20441;-71
2023/06/18 08:56:10;;;;;;;7.20;3.20;;;;;;;22.31;70.39;100972.19;5072870;28;20448;-71
2023/06/18 08:58:42;;;;;;;7.80;2.83;;;;;;;22.28;71.80;100978.44;5072874;28;20504;-71
2023/06/18 09:01:10;;;;;;;8.40;3.40;;;;;;;22.36;69.92;100991.19;5072763;28;20414;-72
2023/06/18 09:03:38;;;;;;;6.43;2.60;;;;;;;22.53;67.73;100989.84;5072374;28;20880;-71
2023/06/18 09:06:06;;;;;;;6.47;2.90;;;;;;;22.73;63.11;100987.75;5072710;28;20471;-71
2023/06/18 09:08:33;;;;;;;6.83;2.27;;;;;;;22.85;59.78;100992.25;5072237;28;20481;-71
2023/06/18 09:11:01;;;;;;;7.47;2.70;;;;;;;22.88;58.39;100988.72;5072542;28;20441;-71
2023/06/18 09:13:27;;;;;;;7.60;2.60;;;;;;;22.97;60.13;100996.75;5072556;28;20437;-72
2023/06/18 09:15:55;;;;;;;8.90;2.93;;;;;;;23.07;58.62;100985.88;5075652;28;20490;-71
2023/06/18 09:18:25;;;;;;;7.00;2.73;;;;;;;23.33;60.20;100976.69;5076222;28;20514;-71
2023/06/18 09:20:52;;;;;;;6.10;2.07;;;;;;;23.55;60.36;100985.19;5076150;28;20486;-71
2023/06/18 09:23:19;;;;;;;6.27;2.23;;;;;;;23.65;63.31;100981.78;5075997;28;20437;-71
2023/06/18 09:25:50;;;;;;;7.03;2.97;;;;;;;23.51;61.90;100979.63;5075943;28;20484;-71
2023/06/18 09:28:19;;;;;;;5.77;2.33;;;;;;;23.37;61.44;100980.28;5075815;28;20475;-71
2023/06/18 09:30:50;;;;;;;7.50;2.97;;;;;;;23.34;62.38;100972.75;5075862;28;20506;-71
2023/06/18 09:33:26;;;;;;;7.10;2.30;;;;;;;23.41;59.98;100989.38;5075788;28;20855;-72
2023/06/18 09:35:59;;;;;;;7.60;2.87;;;;;;;23.42;60.79;100979.94;5075943;28;20436;-72
2023/06/18 09:38:32;;;;;;;6.90;2.53;;;;;;;23.45;60.76;100983.91;5075739;28;20579;-71
2023/06/18 09:40:59;;;;;;;6.37;2.63;;;;;;;23.67;64.23;100977.44;5075653;28;20430;-74
2023/06/18 09:43:33;;;;;;;8.47;3.40;;;;;;;23.89;62.20;100985.94;5075534;28;20928;-71
2023/06/18 09:46:00;;;;;;;7.10;3.20;;;;;;;23.89;58.63;100988.72;5076020;28;20421;-73
2023/06/18 09:48:27;;;;;;;6.50;2.33;;;;;;;24.01;57.45;100984.84;5075531;28;20522;-71
2023/06/18 09:50:56;;;;;;;6.03;2.67;;;;;;;24.03;58.29;100983.28;5075622;28;20490;-73
2023/06/18 09:53:24;;;;;;;6.53;2.30;;;;;;;24.04;57.88;100989.59;5075418;28;20481;-75
2023/06/18 09:55:51;;;;;;;7.50;3.30;;;;;;;23.79;56.44;100986.66;5075431;28;20452;-71
2023/06/18 09:58:17;;;;;;;7.07;2.80;;;;;;;23.85;55.91;100979.56;5075339;28;20464;-71
2023/06/18 10:01:03;;;;;;;11.00;3.00;;;;;;;23.92;54.50;100979.66;5075431;28;20652;-71
2023/06/18 10:03:30;;;;;;;7.90;3.00;;;;;;;24.03;55.01;100979.72;5075111;28;20900;-71
2023/06/18 10:06:05;;;;;;;6.47;2.70;;;;;;;24.12;56.10;100980.19;5075304;28;20544;-72
2023/06/18 10:08:34;;;;;;;6.40;2.60;;;;;;;24.32;57.38;100984.31;5074944;28;21021;-71
2023/06/18 10:11:01;;;;;;;5.80;2.10;;;;;;;24.51;57.06;100976.94;5075347;28;20468;-71
2023/06/18 10:13:30;;;;;;;8.97;2.83;;;;;;;24.69;54.52;100980.59;5075037;28;20572;-71
2023/06/18 10:15:57;;;;;;;6.93;2.23;;;;;;;24.77;54.46;100978.66;5074842;28;20820;-72
2023/06/18 10:18:24;;;;;;;6.50;2.80;;;;;;;25.04;52.98;100982.72;5075144;28;20544;-71
2023/06/18 10:20:54;;;;;;;6.37;2.57;;;;;;;25.24;52.58;100977.69;5074834;28;20866;-72
2023/06/18 10:23:24;;;;;;;6.50;2.63;;;;;;;25.31;52.51;100986.00;5075090;28;20441;-71
2023/06/18 10:25:52;;;;;;;6.13;2.70;;;;;;;25.23;50.55;100978.06;5073609;28;20495;-72
2023/06/18 10:28:19;;;;;;;6.23;2.40;;;;;;;25.14;50.76;100976.44;5074902;28;20552;-71
2023/06/18 10:30:46;;;;;;;6.60;2.97;;;;;;;24.88;52.77;100973.94;5074964;28;20441;-72
2023/06/18 10:33:13;;;;;;;7.77;3.20;;;;;;;24.88;53.91;100977.53;5074889;28;20568;-71
2023/06/18 10:35:41;;;;;;;6.27;2.83;;;;;;;24.87;56.03;100973.16;5074870;28;20882;-72
2023/06/18 10:38:08;;;;;;;6.67;2.60;;;;;;;24.76;56.30;100964.00;5074441;28;20552;-71
2023/06/18 10:40:38;;;;;;;6.97;3.07;;;;;;;24.73;58.09;100973.09;5074801;28;20515;-72
2023/06/18 10:43:09;;;;;;;6.60;2.67;;;;;;;24.61;56.84;100974.25;5074513;28;20829;-71
2023/06/18 10:45:36;;;;;;;6.53;2.53;;;;;;;24.53;56.95;100975.38;5074364;28;20517;-72
2023/06/18 10:48:16;;;;;;;6.50;2.70;;;;;;;24.56;55.31;100979.34;5074569;28;20496;-72
2023/06/18 10:51:14;;;;;;;5.50;2.33;;;;;;;24.46;55.20;100975.31;5074596;28;20816;-72
2023/06/18 10:53:41;;;;;;;7.77;2.90;;;;;;;24.63;56.72;100966.31;5074452;28;20484;-71
2023/06/18 10:56:08;;;;;;;7.80;2.97;;;;;;;24.99;56.86;100969.25;5074465;28;20877;-72
2023/06/18 10:58:37;;;;;;;9.00;2.63;;;;;;;25.34;57.18;100974.16;5073964;28;20986;-72
2023/06/18 11:01:04;;;;;;;6.73;2.60;;;;;;;25.63;56.05;100974.19;5074404;28;20856;-72
2023/06/18 11:03:34;;;;;;;6.57;2.53;;;;;;;25.63;52.35;100965.88;5074273;28;20433;-72
2023/06/18 11:06:02;;;;;;;7.13;2.90;;;;;;;25.35;51.98;100964.63;5074007;28;20483;-72
2023/06/18 11:08:31;;;;;;;6.90;2.50;;;;;;;25.54;55.66;100960.69;5073931;28;20508;-72
2023/06/18 11:11:02;;;;;;;6.77;2.80;;;;;;;25.69;51.73;100972.63;5073771;28;21014;-72
2023/06/18 11:13:31;;;;;;;6.90;3.20;;;;;;;25.88;51.68;100958.38;5073625;28;20907;-72
2023/06/18 11:16:12;;;;;;;7.53;3.10;;;;;;;26.19;49.89;100955.97;5074096;28;20445;-72
2023/06/18 11:18:40;;;;;;;7.60;3.40;;;;;;;26.54;48.27;100952.38;5073750;28;20461;-72